sensor_id;sensor_type;location;lat;lon;timestamp;temperature;humidity
2855;DHT22;1435;49.472;10.940;2023-01-10T00:02:42;7.00;99.90
2855;DHT22;1435;49.472;10.940;2023-01-10T00:07:44;7.10;99.90
2855;DHT22;1435;49.472;10.940;2023-01-10T00:12:47;7.00;99.90
2855;DHT22;1435;49.472;10.940;2023-01-10T00:18:06;7.00;99.90
2855;DHT22;1435;49.472;10.940;2023-01-10T00:23:08;6.90;99.90
2855;DHT22;1435;49.472;10.940;2023-01-10T00:28:11;7.00;99.90
2855;DHT22;1435;49.472;10.940;2023-01-10T00:33:19;6.80;99.90
2855;DHT22;1435;49.472;10.940;2023-01-10T00:38:21;6.80;99.90
2855;DHT22;1435;49.472;10.940;2023-01-10T00:43:24;6.90;99.90
2855;DHT22;1435;49.472;10.940;2023-01-10T00:48:43;6.90;99.90
2855;DHT22;1435;49.472;10.940;2023-01-10T00:53:45;7.00;99.90
2855;DHT22;1435;49.472;10.940;2023-01-10T00:58:48;7.00;99.90
2855;DHT22;1435;49.472;10.940;2023-01-10T01:03:49;7.00;99.90
2855;DHT22;1435;49.472;10.940;2023-01-10T01:08:51;7.00;99.90
2855;DHT22;1435;49.472;10.940;2023-01-10T01:13:54;7.00;99.90
2855;DHT22;1435;49.472;10.940;2023-01-10T01:18:56;7.10;99.90
2855;DHT22;1435;49.472;10.940;2023-01-10T01:23:58;7.10;99.90
2855;DHT22;1435;49.472;10.940;2023-01-10T01:29:01;7.00;99.90
2855;DHT22;1435;49.472;10.940;2023-01-10T01:34:02;7.10;99.90
2855;DHT22;1435;49.472;10.940;2023-01-10T01:39:04;7.10;99.90
2855;DHT22;1435;49.472;10.940;2023-01-10T01:44:13;7.10;99.90
2855;DHT22;1435;49.472;10.940;2023-01-10T01:49:19;7.10;99.90
2855;DHT22;1435;49.472;10.940;2023-01-10T01:54:21;7.20;99.90
2855;DHT22;1435;49.472;10.940;2023-01-10T01:59:27;7.20;99.90
2855;DHT22;1435;49.472;10.940;2023-01-10T02:04:36;7.20;99.90
2855;DHT22;1435;49.472;10.940;2023-01-10T02:09:43;7.20;99.90
2855;DHT22;1435;49.472;10.940;2023-01-10T02:14:49;7.20;99.90
2855;DHT22;1435;49.472;10.940;2023-01-10T02:19:54;7.30;99.90
2855;DHT22;1435;49.472;10.940;2023-01-10T02:31:05;7.20;99.90
2855;DHT22;1435;49.472;10.940;2023-01-10T02:36:29;7.30;99.90
2855;DHT22;1435;49.472;10.940;2023-01-10T02:41:38;7.10;99.90
2855;DHT22;1435;49.472;10.940;2023-01-10T02:46:43;7.20;99.90
2855;DHT22;1435;49.472;10.940;2023-01-10T02:51:47;7.30;99.90
2855;DHT22;1435;49.472;10.940;2023-01-10T02:57:18;7.20;99.90
2855;DHT22;1435;49.472;10.940;2023-01-10T03:02:47;7.20;99.90
2855;DHT22;1435;49.472;10.940;2023-01-10T03:08:01;7.20;99.90
2855;DHT22;1435;49.472;10.940;2023-01-10T03:13:06;7.00;99.90
2855;DHT22;1435;49.472;10.940;2023-01-10T03:18:14;7.00;99.90
2855;DHT22;1435;49.472;10.940;2023-01-10T03:23:22;7.00;99.90
2855;DHT22;1435;49.472;10.940;2023-01-10T03:28:28;7.00;99.90
2855;DHT22;1435;49.472;10.940;2023-01-10T03:33:31;7.00;99.90
2855;DHT22;1435;49.472;10.940;2023-01-10T03:38:41;7.00;99.90
2855;DHT22;1435;49.472;10.940;2023-01-10T03:43:50;7.00;99.90
2855;DHT22;1435;49.472;10.940;2023-01-10T03:49:13;7.00;99.90
2855;DHT22;1435;49.472;10.940;2023-01-10T03:54:17;7.10;99.90
2855;DHT22;1435;49.472;10.940;2023-01-10T03:59:21;7.10;99.90
2855;DHT22;1435;49.472;10.940;2023-01-10T04:04:23;7.00;99.90
2855;DHT22;1435;49.472;10.940;2023-01-10T04:09:26;6.90;99.90
2855;DHT22;1435;49.472;10.940;2023-01-10T04:14:28;6.90;99.90
2855;DHT22;1435;49.472;10.940;2023-01-10T04:19:32;7.00;99.90
2855;DHT22;1435;49.472;10.940;2023-01-10T04:24:35;7.00;99.90
2855;DHT22;1435;49.472;10.940;2023-01-10T04:29:36;6.90;99.90
2855;DHT22;1435;49.472;10.940;2023-01-10T04:34:38;7.00;99.90
2855;DHT22;1435;49.472;10.940;2023-01-10T04:39:41;6.80;99.90
2855;DHT22;1435;49.472;10.940;2023-01-10T04:44:43;6.70;99.90
2855;DHT22;1435;49.472;10.940;2023-01-10T04:49:44;6.80;99.90
2855;DHT22;1435;49.472;10.940;2023-01-10T04:54:47;6.80;99.90
2855;DHT22;1435;49.472;10.940;2023-01-10T04:59:49;6.80;99.90
2855;DHT22;1435;49.472;10.940;2023-01-10T05:04:51;6.90;99.90
2855;DHT22;1435;49.472;10.940;2023-01-10T05:09:54;6.90;99.90
2855;DHT22;1435;49.472;10.940;2023-01-10T05:14:55;6.80;99.90
2855;DHT22;1435;49.472;10.940;2023-01-10T05:19:57;6.70;99.90
2855;DHT22;1435;49.472;10.940;2023-01-10T05:25:00;6.80;99.90
2855;DHT22;1435;49.472;10.940;2023-01-10T05:30:02;6.90;99.90
2855;DHT22;1435;49.472;10.940;2023-01-10T05:35:04;7.00;99.90
2855;DHT22;1435;49.472;10.940;2023-01-10T05:40:09;7.00;99.90
2855;DHT22;1435;49.472;10.940;2023-01-10T05:45:11;7.00;99.90
2855;DHT22;1435;49.472;10.940;2023-01-10T05:50:12;7.10;99.90
2855;DHT22;1435;49.472;10.940;2023-01-10T05:55:15;7.10;99.90
2855;DHT22;1435;49.472;10.940;2023-01-10T06:00:18;7.20;99.90
2855;DHT22;1435;49.472;10.940;2023-01-10T06:05:20;7.20;99.90
2855;DHT22;1435;49.472;10.940;2023-01-10T06:10:23;7.10;99.90
2855;DHT22;1435;49.472;10.940;2023-01-10T06:15:24;7.20;99.90
2855;DHT22;1435;49.472;10.940;2023-01-10T06:20:27;7.20;99.90
2855;DHT22;1435;49.472;10.940;2023-01-10T06:25:30;7.10;99.90
2855;DHT22;1435;49.472;10.940;2023-01-10T06:30:33;7.10;99.90
2855;DHT22;1435;49.472;10.940;2023-01-10T06:35:35;7.10;99.90
2855;DHT22;1435;49.472;10.940;2023-01-10T06:40:38;7.10;99.90
2855;DHT22;1435;49.472;10.940;2023-01-10T06:45:40;7.00;99.90
2855;DHT22;1435;49.472;10.940;2023-01-10T06:50:42;7.00;99.90
2855;DHT22;1435;49.472;10.940;2023-01-10T06:55:45;6.90;99.90
2855;DHT22;1435;49.472;10.940;2023-01-10T07:00:46;6.90;99.90
2855;DHT22;1435;49.472;10.940;2023-01-10T07:05:48;6.80;99.90
2855;DHT22;1435;49.472;10.940;2023-01-10T07:10:51;6.90;99.90
2855;DHT22;1435;49.472;10.940;2023-01-10T07:16:01;7.00;99.90
2855;DHT22;1435;49.472;10.940;2023-01-10T07:21:03;7.00;99.90
2855;DHT22;1435;49.472;10.940;2023-01-10T07:26:08;7.10;99.90
2855;DHT22;1435;49.472;10.940;2023-01-10T07:31:10;7.20;99.90
2855;DHT22;1435;49.472;10.940;2023-01-10T07:36:13;7.10;99.90
2855;DHT22;1435;49.472;10.940;2023-01-10T07:41:16;7.10;99.90
2855;DHT22;1435;49.472;10.940;2023-01-10T07:46:17;7.00;99.90
2855;DHT22;1435;49.472;10.940;2023-01-10T07:51:19;6.90;99.90
2855;DHT22;1435;49.472;10.940;2023-01-10T07:56:22;7.00;99.90
2855;DHT22;1435;49.472;10.940;2023-01-10T08:01:24;7.00;99.90
2855;DHT22;1435;49.472;10.940;2023-01-10T08:06:26;6.90;99.90
2855;DHT22;1435;49.472;10.940;2023-01-10T08:11:29;6.90;99.90
2855;DHT22;1435;49.472;10.940;2023-01-10T08:16:31;7.00;99.90
2855;DHT22;1435;49.472;10.940;2023-01-10T08:21:33;6.90;99.90
2855;DHT22;1435;49.472;10.940;2023-01-10T08:26:36;6.90;99.90
2855;DHT22;1435;49.472;10.940;2023-01-10T08:31:39;7.00;99.90
2855;DHT22;1435;49.472;10.940;2023-01-10T08:36:41;7.00;99.90
2855;DHT22;1435;49.472;10.940;2023-01-10T08:41:44;7.00;99.90
2855;DHT22;1435;49.472;10.940;2023-01-10T08:46:47;6.90;99.90
2855;DHT22;1435;49.472;10.940;2023-01-10T08:51:49;6.90;99.90
2855;DHT22;1435;49.472;10.940;2023-01-10T08:56:51;6.80;99.90
2855;DHT22;1435;49.472;10.940;2023-01-10T09:01:53;6.90;99.90
2855;DHT22;1435;49.472;10.940;2023-01-10T09:06:57;7.00;99.90
2855;DHT22;1435;49.472;10.940;2023-01-10T09:12:00;7.00;99.90
2855;DHT22;1435;49.472;10.940;2023-01-10T09:17:22;7.00;99.90
2855;DHT22;1435;49.472;10.940;2023-01-10T09:22:24;6.90;99.90
2855;DHT22;1435;49.472;10.940;2023-01-10T09:27:30;7.00;99.90
2855;DHT22;1435;49.472;10.940;2023-01-10T09:32:32;6.90;99.90
2855;DHT22;1435;49.472;10.940;2023-01-10T09:37:33;7.00;99.90
2855;DHT22;1435;49.472;10.940;2023-01-10T09:42:49;7.10;99.90
2855;DHT22;1435;49.472;10.940;2023-01-10T09:48:00;7.10;99.90
2855;DHT22;1435;49.472;10.940;2023-01-10T09:53:09;7.20;99.90
2855;DHT22;1435;49.472;10.940;2023-01-10T09:58:17;7.20;99.90
2855;DHT22;1435;49.472;10.940;2023-01-10T10:03:26;7.30;99.90
2855;DHT22;1435;49.472;10.940;2023-01-10T10:08:30;7.30;99.90
2855;DHT22;1435;49.472;10.940;2023-01-10T10:13:40;7.40;99.90
2855;DHT22;1435;49.472;10.940;2023-01-10T10:18:51;7.40;99.90
2855;DHT22;1435;49.472;10.940;2023-01-10T10:29:48;7.40;99.90
2855;DHT22;1435;49.472;10.940;2023-01-10T10:34:57;7.50;99.90
2855;DHT22;1435;49.472;10.940;2023-01-10T10:40:02;7.30;99.90
2855;DHT22;1435;49.472;10.940;2023-01-10T10:45:15;7.30;99.90
2855;DHT22;1435;49.472;10.940;2023-01-10T10:50:24;7.30;99.90
2855;DHT22;1435;49.472;10.940;2023-01-10T10:55:29;7.30;99.90
2855;DHT22;1435;49.472;10.940;2023-01-10T11:00:33;7.10;99.90
2855;DHT22;1435;49.472;10.940;2023-01-10T11:05:37;7.30;99.90
2855;DHT22;1435;49.472;10.940;2023-01-10T11:10:42;7.30;99.90
2855;DHT22;1435;49.472;10.940;2023-01-10T11:15:47;7.30;99.90
2855;DHT22;1435;49.472;10.940;2023-01-10T11:20:52;7.40;99.90
2855;DHT22;1435;49.472;10.940;2023-01-10T11:25:57;7.40;99.90
2855;DHT22;1435;49.472;10.940;2023-01-10T11:31:01;7.40;99.90
2855;DHT22;1435;49.472;10.940;2023-01-10T11:36:05;7.50;99.90
2855;DHT22;1435;49.472;10.940;2023-01-10T11:41:22;7.60;99.90
2855;DHT22;1435;49.472;10.940;2023-01-10T11:46:27;7.40;99.90
2855;DHT22;1435;49.472;10.940;2023-01-10T11:51:32;7.40;99.90
2855;DHT22;1435;49.472;10.940;2023-01-10T11:56:35;7.50;99.90
2855;DHT22;1435;49.472;10.940;2023-01-10T12:01:42;7.60;99.90
2855;DHT22;1435;49.472;10.940;2023-01-10T12:06:47;7.50;99.90
2855;DHT22;1435;49.472;10.940;2023-01-10T12:12:00;7.40;99.90
2855;DHT22;1435;49.472;10.940;2023-01-10T12:17:04;7.60;99.90
2855;DHT22;1435;49.472;10.940;2023-01-10T12:22:08;7.50;99.90
2855;DHT22;1435;49.472;10.940;2023-01-10T12:27:14;7.60;99.90
2855;DHT22;1435;49.472;10.940;2023-01-10T12:32:21;7.70;99.90
2855;DHT22;1435;49.472;10.940;2023-01-10T12:37:31;7.80;99.90
2855;DHT22;1435;49.472;10.940;2023-01-10T12:42:44;7.80;99.90
2855;DHT22;1435;49.472;10.940;2023-01-10T12:48:13;7.90;99.90
2855;DHT22;1435;49.472;10.940;2023-01-10T12:53:24;7.90;99.90
2855;DHT22;1435;49.472;10.940;2023-01-10T12:58:35;7.80;99.90
2855;DHT22;1435;49.472;10.940;2023-01-10T13:03:40;7.80;99.90
2855;DHT22;1435;49.472;10.940;2023-01-10T13:08:43;7.80;99.90
2855;DHT22;1435;49.472;10.940;2023-01-10T13:13:50;7.80;99.90
2855;DHT22;1435;49.472;10.940;2023-01-10T13:19:03;7.80;99.90
2855;DHT22;1435;49.472;10.940;2023-01-10T13:24:17;7.80;99.90
2855;DHT22;1435;49.472;10.940;2023-01-10T13:29:21;7.80;99.90
2855;DHT22;1435;49.472;10.940;2023-01-10T13:34:31;7.80;99.90
2855;DHT22;1435;49.472;10.940;2023-01-10T13:39:35;7.80;99.90
2855;DHT22;1435;49.472;10.940;2023-01-10T13:56:01;7.90;99.90
2855;DHT22;1435;49.472;10.940;2023-01-10T14:01:03;7.90;99.90
2855;DHT22;1435;49.472;10.940;2023-01-10T14:06:36;7.80;99.90
2855;DHT22;1435;49.472;10.940;2023-01-10T14:11:50;7.80;99.90
2855;DHT22;1435;49.472;10.940;2023-01-10T14:16:54;7.80;99.90
2855;DHT22;1435;49.472;10.940;2023-01-10T14:21:58;7.60;99.90
2855;DHT22;1435;49.472;10.940;2023-01-10T14:27:02;7.70;99.90
2855;DHT22;1435;49.472;10.940;2023-01-10T14:32:14;7.70;99.90
2855;DHT22;1435;49.472;10.940;2023-01-10T14:37:24;7.70;99.90
2855;DHT22;1435;49.472;10.940;2023-01-10T14:42:29;7.90;99.90
2855;DHT22;1435;49.472;10.940;2023-01-10T14:47:33;7.90;99.90
2855;DHT22;1435;49.472;10.940;2023-01-10T14:52:41;7.90;99.90
2855;DHT22;1435;49.472;10.940;2023-01-10T14:57:53;7.90;99.90
2855;DHT22;1435;49.472;10.940;2023-01-10T15:02:57;7.90;99.90
2855;DHT22;1435;49.472;10.940;2023-01-10T15:08:15;7.90;99.90
2855;DHT22;1435;49.472;10.940;2023-01-10T15:13:22;7.80;99.90
2855;DHT22;1435;49.472;10.940;2023-01-10T15:18:32;7.70;99.90
2855;DHT22;1435;49.472;10.940;2023-01-10T15:23:38;7.80;99.90
2855;DHT22;1435;49.472;10.940;2023-01-10T15:28:42;7.90;99.90
2855;DHT22;1435;49.472;10.940;2023-01-10T15:33:47;7.90;99.90
2855;DHT22;1435;49.472;10.940;2023-01-10T15:38:55;7.90;99.90
2855;DHT22;1435;49.472;10.940;2023-01-10T15:44:23;7.90;99.90
2855;DHT22;1435;49.472;10.940;2023-01-10T15:49:32;7.80;99.90
2855;DHT22;1435;49.472;10.940;2023-01-10T15:54:34;7.80;99.90
2855;DHT22;1435;49.472;10.940;2023-01-10T15:59:40;7.90;99.90
2855;DHT22;1435;49.472;10.940;2023-01-10T16:04:45;7.80;99.90
2855;DHT22;1435;49.472;10.940;2023-01-10T16:09:50;7.80;99.90
2855;DHT22;1435;49.472;10.940;2023-01-10T16:14:55;7.80;99.90
2855;DHT22;1435;49.472;10.940;2023-01-10T16:19:57;7.70;99.90
2855;DHT22;1435;49.472;10.940;2023-01-10T16:24:58;7.70;99.90
2855;DHT22;1435;49.472;10.940;2023-01-10T16:30:01;7.60;99.90
2855;DHT22;1435;49.472;10.940;2023-01-10T16:35:04;7.60;99.90
2855;DHT22;1435;49.472;10.940;2023-01-10T16:40:16;7.60;99.90
2855;DHT22;1435;49.472;10.940;2023-01-10T16:45:20;7.50;99.90
2855;DHT22;1435;49.472;10.940;2023-01-10T16:50:22;7.40;99.90
2855;DHT22;1435;49.472;10.940;2023-01-10T16:55:28;7.30;99.90
2855;DHT22;1435;49.472;10.940;2023-01-10T17:00:35;7.30;99.90
2855;DHT22;1435;49.472;10.940;2023-01-10T17:05:38;7.20;99.90
2855;DHT22;1435;49.472;10.940;2023-01-10T17:10:39;7.00;99.90
2855;DHT22;1435;49.472;10.940;2023-01-10T17:15:43;7.00;99.90
2855;DHT22;1435;49.472;10.940;2023-01-10T17:20:44;7.00;99.90
2855;DHT22;1435;49.472;10.940;2023-01-10T17:25:46;6.90;99.90
2855;DHT22;1435;49.472;10.940;2023-01-10T17:30:50;6.80;99.90
2855;DHT22;1435;49.472;10.940;2023-01-10T17:35:53;6.80;99.90
2855;DHT22;1435;49.472;10.940;2023-01-10T17:40:57;6.70;99.90
2855;DHT22;1435;49.472;10.940;2023-01-10T17:46:02;6.60;99.90
2855;DHT22;1435;49.472;10.940;2023-01-10T17:51:05;6.60;99.90
2855;DHT22;1435;49.472;10.940;2023-01-10T17:56:08;6.50;99.90
2855;DHT22;1435;49.472;10.940;2023-01-10T18:01:16;6.30;99.90
2855;DHT22;1435;49.472;10.940;2023-01-10T18:06:19;6.20;99.90
2855;DHT22;1435;49.472;10.940;2023-01-10T18:11:21;6.10;99.90
2855;DHT22;1435;49.472;10.940;2023-01-10T18:16:25;6.00;99.90
2855;DHT22;1435;49.472;10.940;2023-01-10T18:21:27;6.00;99.90
2855;DHT22;1435;49.472;10.940;2023-01-10T18:26:29;5.90;99.90
2855;DHT22;1435;49.472;10.940;2023-01-10T18:31:32;5.90;99.90
2855;DHT22;1435;49.472;10.940;2023-01-10T18:36:34;5.90;99.90
2855;DHT22;1435;49.472;10.940;2023-01-10T18:41:39;5.90;99.90
2855;DHT22;1435;49.472;10.940;2023-01-10T18:46:42;5.90;99.90
2855;DHT22;1435;49.472;10.940;2023-01-10T18:51:43;5.90;99.90
2855;DHT22;1435;49.472;10.940;2023-01-10T18:56:45;5.80;99.90
2855;DHT22;1435;49.472;10.940;2023-01-10T19:01:48;5.90;99.90
2855;DHT22;1435;49.472;10.940;2023-01-10T19:06:50;5.90;99.90
2855;DHT22;1435;49.472;10.940;2023-01-10T19:11:51;5.80;99.90
2855;DHT22;1435;49.472;10.940;2023-01-10T19:16:54;5.80;99.90
2855;DHT22;1435;49.472;10.940;2023-01-10T19:21:56;5.70;99.90
2855;DHT22;1435;49.472;10.940;2023-01-10T19:26:58;5.80;99.90
2855;DHT22;1435;49.472;10.940;2023-01-10T19:32:01;5.80;99.90
2855;DHT22;1435;49.472;10.940;2023-01-10T19:37:04;5.70;99.90
2855;DHT22;1435;49.472;10.940;2023-01-10T19:42:05;5.70;99.90
2855;DHT22;1435;49.472;10.940;2023-01-10T19:47:08;5.70;99.90
2855;DHT22;1435;49.472;10.940;2023-01-10T19:52:11;5.70;99.90
2855;DHT22;1435;49.472;10.940;2023-01-10T19:57:14;5.60;99.90
2855;DHT22;1435;49.472;10.940;2023-01-10T20:02:17;5.60;99.90
2855;DHT22;1435;49.472;10.940;2023-01-10T20:07:19;5.50;99.90
2855;DHT22;1435;49.472;10.940;2023-01-10T20:12:21;5.40;99.90
2855;DHT22;1435;49.472;10.940;2023-01-10T20:17:24;5.30;99.90
2855;DHT22;1435;49.472;10.940;2023-01-10T20:22:28;5.20;99.90
2855;DHT22;1435;49.472;10.940;2023-01-10T20:27:29;5.10;99.90
2855;DHT22;1435;49.472;10.940;2023-01-10T20:32:32;5.00;99.90
2855;DHT22;1435;49.472;10.940;2023-01-10T20:37:34;4.80;99.90
2855;DHT22;1435;49.472;10.940;2023-01-10T20:42:36;4.70;99.90
2855;DHT22;1435;49.472;10.940;2023-01-10T20:47:43;4.70;99.90
2855;DHT22;1435;49.472;10.940;2023-01-10T20:52:45;4.70;99.90
2855;DHT22;1435;49.472;10.940;2023-01-10T20:57:46;4.80;99.90
2855;DHT22;1435;49.472;10.940;2023-01-10T21:02:49;4.80;99.90
2855;DHT22;1435;49.472;10.940;2023-01-10T21:07:51;4.70;99.90
2855;DHT22;1435;49.472;10.940;2023-01-10T21:12:53;4.80;99.90
2855;DHT22;1435;49.472;10.940;2023-01-10T21:17:56;4.80;99.90
2855;DHT22;1435;49.472;10.940;2023-01-10T21:22:58;4.80;99.90
2855;DHT22;1435;49.472;10.940;2023-01-10T21:27:59;4.90;99.90
2855;DHT22;1435;49.472;10.940;2023-01-10T21:33:03;5.00;99.90
2855;DHT22;1435;49.472;10.940;2023-01-10T21:38:05;5.00;99.90
2855;DHT22;1435;49.472;10.940;2023-01-10T21:43:07;5.10;99.90
2855;DHT22;1435;49.472;10.940;2023-01-10T21:48:10;5.10;99.90
2855;DHT22;1435;49.472;10.940;2023-01-10T21:53:11;5.10;99.90
2855;DHT22;1435;49.472;10.940;2023-01-10T21:58:13;5.20;99.90
2855;DHT22;1435;49.472;10.940;2023-01-10T22:03:16;5.10;99.90
2855;DHT22;1435;49.472;10.940;2023-01-10T22:08:18;5.20;99.90
2855;DHT22;1435;49.472;10.940;2023-01-10T22:13:19;5.10;99.90
2855;DHT22;1435;49.472;10.940;2023-01-10T22:18:22;5.10;99.90
2855;DHT22;1435;49.472;10.940;2023-01-10T22:23:26;5.00;99.90
2855;DHT22;1435;49.472;10.940;2023-01-10T22:28:28;5.00;99.90
2855;DHT22;1435;49.472;10.940;2023-01-10T22:33:33;5.20;99.90
2855;DHT22;1435;49.472;10.940;2023-01-10T22:38:35;5.20;99.90
2855;DHT22;1435;49.472;10.940;2023-01-10T22:43:37;5.20;99.90
2855;DHT22;1435;49.472;10.940;2023-01-10T22:48:41;5.30;99.90
2855;DHT22;1435;49.472;10.940;2023-01-10T22:53:47;5.30;99.90
2855;DHT22;1435;49.472;10.940;2023-01-10T22:58:49;5.40;99.90
2855;DHT22;1435;49.472;10.940;2023-01-10T23:03:53;5.40;99.90
2855;DHT22;1435;49.472;10.940;2023-01-10T23:08:54;5.40;99.90
2855;DHT22;1435;49.472;10.940;2023-01-10T23:13:56;5.40;99.90
2855;DHT22;1435;49.472;10.940;2023-01-10T23:18:59;5.40;99.90
2855;DHT22;1435;49.472;10.940;2023-01-10T23:24:01;5.40;99.90
2855;DHT22;1435;49.472;10.940;2023-01-10T23:29:03;5.40;99.90
2855;DHT22;1435;49.472;10.940;2023-01-10T23:34:06;5.30;99.90
2855;DHT22;1435;49.472;10.940;2023-01-10T23:39:07;5.20;99.90
2855;DHT22;1435;49.472;10.940;2023-01-10T23:44:09;5.30;99.90
2855;DHT22;1435;49.472;10.940;2023-01-10T23:49:12;5.30;99.90
2855;DHT22;1435;49.472;10.940;2023-01-10T23:54:14;5.30;99.90
2855;DHT22;1435;49.472;10.940;2023-01-10T23:59:16;5.30;99.90
